NKS22 MWCR-KFLL
Flight info
| Callsign | NKS22 |
|---|---|
| Flight time | 1h 14m |
| Altitude | 36000 |
| Route | RIKEL2 RIKEL DCT IKBIX BHHIA3 |
| Aircraft | A320/M-SDE3FGHIRWY/LB1 |
Departure
| Time | 2026-05-03 22:31 |
|---|---|
| Airport | Owen Roberts International Airport (MWCR) |
Arrival
| Time | 2026-05-03 23:46 |
|---|---|
| Airport | Fort Lauderdale Hollywood International Airport (KFLL) |
| Time | Latitude | Longitude | Altitude | Speed | Heading |
|---|---|---|---|---|---|
| 2026-05-03 22:15 | 19.29519 | -81.35649 | 16 ft | 0 kts | 346° |
| 2026-05-03 22:25 | 19.29506 | -81.35646 | 16 ft | 4 kts | 346° |
| 2026-05-03 22:25 | 19.29482 | -81.35640 | 19 ft | 4 kts | 323° |
| 2026-05-03 22:25 | 19.29474 | -81.35621 | 18 ft | 2 kts | 257° |
| 2026-05-03 22:25 | 19.29479 | -81.35599 | 17 ft | 3 kts | 257° |
| 2026-05-03 22:26 | 19.29480 | -81.35594 | 16 ft | 0 kts | 257° |
| 2026-05-03 22:28 | 19.29475 | -81.35618 | 19 ft | 8 kts | 257° |
| 2026-05-03 22:28 | 19.29456 | -81.35708 | 18 ft | 17 kts | 257° |
| 2026-05-03 22:28 | 19.29405 | -81.35818 | 16 ft | 16 kts | 188° |
| 2026-05-03 22:28 | 19.29288 | -81.35798 | 14 ft | 15 kts | 201° |
| 2026-05-03 22:29 | 19.29247 | -81.35909 | 15 ft | 19 kts | 256° |
| 2026-05-03 22:29 | 19.29209 | -81.36062 | 16 ft | 24 kts | 256° |
| 2026-05-03 22:29 | 19.29166 | -81.36252 | 16 ft | 29 kts | 256° |
| 2026-05-03 22:29 | 19.29114 | -81.36475 | 16 ft | 33 kts | 256° |
| 2026-05-03 22:30 | 19.29055 | -81.36721 | 15 ft | 34 kts | 257° |
| 2026-05-03 22:30 | 19.29033 | -81.36909 | 16 ft | 14 kts | 296° |
| 2026-05-03 22:30 | 19.29043 | -81.37003 | 17 ft | 15 kts | 207° |
| 2026-05-03 22:30 | 19.29008 | -81.36919 | 16 ft | 19 kts | 75° |
| 2026-05-03 22:31 | 19.29080 | -81.36619 | 16 ft | 76 kts | 77° |
| 2026-05-03 22:31 | 19.29258 | -81.35862 | 15 ft | 133 kts | 76° |
| 2026-05-03 22:31 | 19.29515 | -81.34776 | 229 ft | 162 kts | 79° |
| 2026-05-03 22:31 | 19.29775 | -81.33604 | 738 ft | 171 kts | 81° |
| 2026-05-03 22:32 | 19.30089 | -81.32359 | 1231 ft | 184 kts | 67° |
| 2026-05-03 22:32 | 19.30894 | -81.31183 | 1554 ft | 212 kts | 49° |
| 2026-05-03 22:32 | 19.32151 | -81.30150 | 1941 ft | 240 kts | 32° |
| 2026-05-03 22:32 | 19.33766 | -81.29417 | 2422 ft | 265 kts | 17° |
| 2026-05-03 22:33 | 19.35607 | -81.29183 | 3221 ft | 276 kts | 359° |
| 2026-05-03 22:33 | 19.37537 | -81.29331 | 4146 ft | 279 kts | 1° |
| 2026-05-03 22:33 | 19.39470 | -81.29113 | 5071 ft | 281 kts | 15° |
| 2026-05-03 22:33 | 19.41325 | -81.28447 | 5961 ft | 283 kts | 22° |
| 2026-05-03 22:34 | 19.43171 | -81.27696 | 6857 ft | 285 kts | 22° |
| 2026-05-03 22:34 | 19.45034 | -81.26932 | 7710 ft | 288 kts | 21° |
| 2026-05-03 22:34 | 19.46913 | -81.26160 | 8567 ft | 291 kts | 21° |
| 2026-05-03 22:34 | 19.48814 | -81.25384 | 9410 ft | 295 kts | 20° |
| 2026-05-03 22:35 | 19.50738 | -81.24600 | 10177 ft | 300 kts | 19° |
| 2026-05-03 22:35 | 19.52768 | -81.23772 | 10436 ft | 323 kts | 20° |
| 2026-05-03 22:35 | 19.54912 | -81.22898 | 10888 ft | 335 kts | 20° |
| 2026-05-03 22:35 | 19.57107 | -81.22002 | 11505 ft | 341 kts | 20° |
| 2026-05-03 22:36 | 19.59334 | -81.21093 | 12166 ft | 345 kts | 20° |
| 2026-05-03 22:36 | 19.61596 | -81.20169 | 12784 ft | 351 kts | 20° |
| 2026-05-03 22:36 | 19.63890 | -81.19232 | 13430 ft | 355 kts | 20° |
| 2026-05-03 22:36 | 19.66208 | -81.18284 | 14004 ft | 360 kts | 20° |
| 2026-05-03 22:37 | 19.68555 | -81.17325 | 14575 ft | 362 kts | 20° |
| 2026-05-03 22:37 | 19.70916 | -81.16359 | 15142 ft | 365 kts | 20° |
| 2026-05-03 22:37 | 19.73293 | -81.15386 | 15745 ft | 367 kts | 20° |
| 2026-05-03 22:37 | 19.75689 | -81.14409 | 16313 ft | 370 kts | 20° |
| 2026-05-03 22:38 | 19.78100 | -81.13427 | 16904 ft | 373 kts | 20° |
| 2026-05-03 22:38 | 19.80529 | -81.12438 | 17487 ft | 375 kts | 20° |
| 2026-05-03 22:38 | 19.82973 | -81.11440 | 18074 ft | 378 kts | 20° |
| 2026-05-03 22:38 | 19.85433 | -81.10431 | 18592 ft | 381 kts | 20° |
| 2026-05-03 22:39 | 19.87914 | -81.09411 | 19059 ft | 384 kts | 20° |
| 2026-05-03 22:39 | 19.90419 | -81.08380 | 19523 ft | 387 kts | 20° |
| 2026-05-03 22:39 | 19.92946 | -81.07342 | 19984 ft | 391 kts | 20° |
| 2026-05-03 22:39 | 19.95496 | -81.06296 | 20444 ft | 395 kts | 20° |
| 2026-05-03 22:40 | 19.98081 | -81.05277 | 20900 ft | 398 kts | 15° |
| 2026-05-03 22:40 | 20.00788 | -81.04665 | 21339 ft | 399 kts | 4° |
| 2026-05-03 22:40 | 20.03563 | -81.04590 | 21779 ft | 400 kts | 355° |
| 2026-05-03 22:40 | 20.06359 | -81.04728 | 22221 ft | 403 kts | 355° |
| 2026-05-03 22:41 | 20.09173 | -81.04864 | 22658 ft | 406 kts | 355° |
| 2026-05-03 22:41 | 20.12009 | -81.04997 | 23102 ft | 410 kts | 355° |
| 2026-05-03 22:41 | 20.14866 | -81.05129 | 23544 ft | 413 kts | 355° |
| 2026-05-03 22:41 | 20.17748 | -81.05262 | 23913 ft | 416 kts | 355° |
| 2026-05-03 22:42 | 20.20648 | -81.05395 | 24284 ft | 418 kts | 355° |
| 2026-05-03 22:42 | 20.23561 | -81.05528 | 24655 ft | 420 kts | 355° |
| 2026-05-03 22:42 | 20.26490 | -81.05664 | 25028 ft | 423 kts | 354° |
| 2026-05-03 22:42 | 20.29436 | -81.05801 | 25396 ft | 425 kts | 354° |
| 2026-05-03 22:43 | 20.32398 | -81.05939 | 25765 ft | 427 kts | 354° |
| 2026-05-03 22:43 | 20.35375 | -81.06077 | 26136 ft | 429 kts | 354° |
| 2026-05-03 22:43 | 20.38367 | -81.06217 | 26498 ft | 432 kts | 354° |
| 2026-05-03 22:43 | 20.41374 | -81.06357 | 26859 ft | 434 kts | 354° |
| 2026-05-03 22:44 | 20.44398 | -81.06494 | 27214 ft | 436 kts | 354° |
| 2026-05-03 22:44 | 20.47438 | -81.06630 | 27562 ft | 438 kts | 354° |
| 2026-05-03 22:44 | 20.50494 | -81.06768 | 27910 ft | 441 kts | 354° |
| 2026-05-03 22:44 | 20.53566 | -81.06911 | 28258 ft | 443 kts | 354° |
| 2026-05-03 22:45 | 20.56649 | -81.07056 | 28611 ft | 445 kts | 354° |
| 2026-05-03 22:45 | 20.59751 | -81.07203 | 28976 ft | 448 kts | 353° |
| 2026-05-03 22:45 | 20.62872 | -81.07349 | 29339 ft | 450 kts | 353° |
| 2026-05-03 22:45 | 20.66010 | -81.07495 | 29694 ft | 453 kts | 353° |
| 2026-05-03 22:46 | 20.69166 | -81.07641 | 30065 ft | 455 kts | 353° |
| 2026-05-03 22:46 | 20.72340 | -81.07788 | 30391 ft | 457 kts | 353° |
| 2026-05-03 22:46 | 20.75522 | -81.07935 | 30712 ft | 459 kts | 353° |
| 2026-05-03 22:46 | 20.78717 | -81.08081 | 31045 ft | 460 kts | 353° |
| 2026-05-03 22:47 | 20.81923 | -81.08228 | 31381 ft | 462 kts | 353° |
| 2026-05-03 22:47 | 20.85133 | -81.08379 | 31728 ft | 462 kts | 353° |
| 2026-05-03 22:47 | 20.88340 | -81.08528 | 32223 ft | 460 kts | 353° |
| 2026-05-03 22:47 | 20.91525 | -81.08674 | 32727 ft | 457 kts | 353° |
| 2026-05-03 22:48 | 20.94698 | -81.08818 | 33231 ft | 455 kts | 352° |
| 2026-05-03 22:48 | 20.97851 | -81.08962 | 33736 ft | 453 kts | 352° |
| 2026-05-03 22:48 | 21.00999 | -81.09106 | 33966 ft | 452 kts | 352° |
| 2026-05-03 22:49 | 21.07160 | -81.09392 | 34010 ft | 436 kts | 352° |
| 2026-05-03 22:49 | 21.13201 | -81.09677 | 34010 ft | 433 kts | 352° |
| 2026-05-03 22:50 | 21.19218 | -81.09966 | 34012 ft | 433 kts | 352° |
| 2026-05-03 22:50 | 21.25238 | -81.10247 | 34012 ft | 433 kts | 352° |
| 2026-05-03 22:51 | 21.31215 | -81.10520 | 34013 ft | 433 kts | 352° |
| 2026-05-03 22:51 | 21.37236 | -81.10809 | 34012 ft | 433 kts | 352° |
| 2026-05-03 22:52 | 21.43257 | -81.11094 | 34013 ft | 433 kts | 352° |
| 2026-05-03 22:52 | 21.49281 | -81.11368 | 34020 ft | 433 kts | 352° |
| 2026-05-03 22:53 | 21.55306 | -81.11647 | 34028 ft | 433 kts | 352° |
| 2026-05-03 22:53 | 21.61330 | -81.11935 | 34036 ft | 434 kts | 352° |
| 2026-05-03 22:54 | 21.67364 | -81.12221 | 34032 ft | 434 kts | 352° |
| 2026-05-03 22:54 | 21.73395 | -81.12506 | 34030 ft | 434 kts | 352° |
| 2026-05-03 22:55 | 21.79430 | -81.12791 | 34031 ft | 434 kts | 352° |
| 2026-05-03 22:55 | 21.85464 | -81.13071 | 34031 ft | 434 kts | 352° |
| 2026-05-03 22:56 | 21.91506 | -81.13348 | 34047 ft | 434 kts | 351° |
| 2026-05-03 22:56 | 21.97537 | -81.13635 | 34049 ft | 433 kts | 351° |
| 2026-05-03 22:57 | 22.03559 | -81.13926 | 34044 ft | 433 kts | 351° |
| 2026-05-03 22:57 | 22.09571 | -81.14211 | 34037 ft | 432 kts | 351° |
| 2026-05-03 22:58 | 22.15575 | -81.14489 | 34038 ft | 432 kts | 351° |
| 2026-05-03 22:58 | 22.21575 | -81.14773 | 34052 ft | 431 kts | 351° |
| 2026-05-03 22:59 | 22.27572 | -81.15061 | 34041 ft | 431 kts | 351° |
| 2026-05-03 22:59 | 22.33573 | -81.15343 | 34040 ft | 431 kts | 351° |
| 2026-05-03 23:00 | 22.39573 | -81.15625 | 34031 ft | 431 kts | 351° |
| 2026-05-03 23:00 | 22.45564 | -81.15906 | 34023 ft | 431 kts | 351° |
| 2026-05-03 23:01 | 22.51552 | -81.16196 | 34022 ft | 431 kts | 351° |
| 2026-05-03 23:01 | 22.57543 | -81.16474 | 34031 ft | 431 kts | 351° |
| 2026-05-03 23:02 | 22.63540 | -81.16762 | 34022 ft | 432 kts | 351° |
| 2026-05-03 23:02 | 22.69539 | -81.17053 | 34019 ft | 432 kts | 351° |
| 2026-05-03 23:03 | 22.75544 | -81.17341 | 34015 ft | 432 kts | 351° |
| 2026-05-03 23:03 | 22.81554 | -81.17625 | 34014 ft | 432 kts | 351° |
| 2026-05-03 23:04 | 22.87562 | -81.17910 | 34029 ft | 432 kts | 351° |
| 2026-05-03 23:04 | 22.93577 | -81.18193 | 34017 ft | 433 kts | 352° |
| 2026-05-03 23:05 | 22.99597 | -81.18483 | 34012 ft | 433 kts | 351° |
| 2026-05-03 23:05 | 23.05625 | -81.18779 | 34012 ft | 434 kts | 351° |
| 2026-05-03 23:06 | 23.11619 | -81.19065 | 34015 ft | 434 kts | 351° |
| 2026-05-03 23:06 | 23.17653 | -81.19359 | 34027 ft | 434 kts | 351° |
| 2026-05-03 23:07 | 23.23696 | -81.19654 | 34006 ft | 435 kts | 351° |
| 2026-05-03 23:07 | 23.29757 | -81.19940 | 34004 ft | 436 kts | 351° |
| 2026-05-03 23:08 | 23.35829 | -81.20226 | 34000 ft | 437 kts | 351° |
| 2026-05-03 23:08 | 23.41910 | -81.20521 | 34007 ft | 438 kts | 351° |
| 2026-05-03 23:09 | 23.47013 | -81.20770 | 34013 ft | 438 kts | 351° |
| 2026-05-03 23:09 | 23.53104 | -81.21067 | 34020 ft | 439 kts | 351° |
| 2026-05-03 23:10 | 23.59208 | -81.21366 | 34014 ft | 440 kts | 352° |
| 2026-05-03 23:10 | 23.65328 | -81.21658 | 34015 ft | 440 kts | 352° |
| 2026-05-03 23:11 | 23.71455 | -81.21951 | 34014 ft | 441 kts | 352° |
| 2026-05-03 23:11 | 23.77565 | -81.22245 | 33688 ft | 436 kts | 352° |
| 2026-05-03 23:11 | 23.80590 | -81.22384 | 33432 ft | 434 kts | 352° |
| 2026-05-03 23:12 | 23.83598 | -81.22523 | 33197 ft | 433 kts | 351° |
| 2026-05-03 23:12 | 23.86608 | -81.22667 | 32946 ft | 433 kts | 351° |
| 2026-05-03 23:12 | 23.89618 | -81.22816 | 32695 ft | 432 kts | 351° |
| 2026-05-03 23:12 | 23.92614 | -81.22966 | 32448 ft | 431 kts | 351° |
| 2026-05-03 23:13 | 23.95603 | -81.23116 | 32204 ft | 429 kts | 351° |
| 2026-05-03 23:13 | 23.98583 | -81.23262 | 31960 ft | 427 kts | 352° |
| 2026-05-03 23:13 | 24.01554 | -81.23124 | 31576 ft | 430 kts | 2° |
| 2026-05-03 23:13 | 24.04517 | -81.22692 | 31095 ft | 429 kts | 2° |
| 2026-05-03 23:14 | 24.07473 | -81.22261 | 30632 ft | 428 kts | 2° |
| 2026-05-03 23:14 | 24.10420 | -81.21833 | 30175 ft | 427 kts | 2° |
| 2026-05-03 23:14 | 24.13362 | -81.21406 | 29694 ft | 425 kts | 2° |
| 2026-05-03 23:14 | 24.16285 | -81.20982 | 29236 ft | 423 kts | 0° |
| 2026-05-03 23:15 | 24.19186 | -81.20563 | 28802 ft | 420 kts | 0° |
| 2026-05-03 23:15 | 24.22073 | -81.20146 | 28381 ft | 417 kts | 0° |
| 2026-05-03 23:15 | 24.24938 | -81.19733 | 27957 ft | 414 kts | 0° |
| 2026-05-03 23:15 | 24.27789 | -81.19328 | 27520 ft | 412 kts | 0° |
| 2026-05-03 23:16 | 24.30629 | -81.18925 | 27082 ft | 411 kts | 0° |
| 2026-05-03 23:16 | 24.33457 | -81.18522 | 26638 ft | 409 kts | 1° |
| 2026-05-03 23:16 | 24.36274 | -81.18117 | 26189 ft | 408 kts | 1° |
| 2026-05-03 23:16 | 24.39087 | -81.17710 | 25724 ft | 407 kts | 1° |
| 2026-05-03 23:17 | 24.41895 | -81.17304 | 25252 ft | 407 kts | 1° |
| 2026-05-03 23:17 | 24.44659 | -81.16905 | 24777 ft | 406 kts | 1° |
| 2026-05-03 23:17 | 24.47502 | -81.16493 | 24272 ft | 407 kts | 1° |
| 2026-05-03 23:17 | 24.50310 | -81.16086 | 23774 ft | 407 kts | 1° |
| 2026-05-03 23:18 | 24.53080 | -81.15686 | 23273 ft | 406 kts | 1° |
| 2026-05-03 23:18 | 24.55904 | -81.15278 | 22746 ft | 404 kts | 1° |
| 2026-05-03 23:18 | 24.58637 | -81.14999 | 22330 ft | 394 kts | 354° |
| 2026-05-03 23:18 | 24.61313 | -81.15347 | 21865 ft | 382 kts | 342° |
| 2026-05-03 23:19 | 24.63912 | -81.15953 | 21331 ft | 381 kts | 342° |
| 2026-05-03 23:19 | 24.66493 | -81.16550 | 20831 ft | 379 kts | 342° |
| 2026-05-03 23:19 | 24.69062 | -81.17139 | 20389 ft | 376 kts | 342° |
| 2026-05-03 23:19 | 24.71612 | -81.17728 | 19986 ft | 372 kts | 341° |
| 2026-05-03 23:20 | 24.74104 | -81.18372 | 19691 ft | 364 kts | 340° |
| 2026-05-03 23:20 | 24.76528 | -81.19057 | 19461 ft | 355 kts | 339° |
| 2026-05-03 23:20 | 24.78890 | -81.19752 | 19229 ft | 347 kts | 338° |
| 2026-05-03 23:20 | 24.81205 | -81.20440 | 19003 ft | 343 kts | 338° |
| 2026-05-03 23:21 | 24.83508 | -81.21117 | 18780 ft | 342 kts | 339° |
| 2026-05-03 23:21 | 24.85802 | -81.21781 | 18550 ft | 340 kts | 339° |
| 2026-05-03 23:21 | 24.88093 | -81.22437 | 18327 ft | 340 kts | 339° |
| 2026-05-03 23:21 | 24.90378 | -81.23088 | 18084 ft | 339 kts | 339° |
| 2026-05-03 23:22 | 24.94926 | -81.24375 | 17645 ft | 336 kts | 340° |
| 2026-05-03 23:22 | 24.97184 | -81.25013 | 17422 ft | 335 kts | 340° |
| 2026-05-03 23:22 | 24.99438 | -81.25653 | 17210 ft | 333 kts | 339° |
| 2026-05-03 23:23 | 25.01708 | -81.26301 | 16990 ft | 332 kts | 340° |
| 2026-05-03 23:23 | 25.03910 | -81.26929 | 16780 ft | 331 kts | 340° |
| 2026-05-03 23:23 | 25.06137 | -81.27563 | 16558 ft | 330 kts | 340° |
| 2026-05-03 23:23 | 25.08354 | -81.28193 | 16354 ft | 328 kts | 340° |
| 2026-05-03 23:24 | 25.10561 | -81.28820 | 16130 ft | 326 kts | 340° |
| 2026-05-03 23:24 | 25.12754 | -81.29448 | 15916 ft | 325 kts | 340° |
| 2026-05-03 23:24 | 25.14938 | -81.30074 | 15700 ft | 324 kts | 340° |
| 2026-05-03 23:24 | 25.17118 | -81.30700 | 15491 ft | 323 kts | 340° |
| 2026-05-03 23:25 | 25.19299 | -81.31294 | 15280 ft | 324 kts | 345° |
| 2026-05-03 23:25 | 25.21569 | -81.31341 | 15057 ft | 332 kts | 4° |
| 2026-05-03 23:25 | 25.23790 | -81.30577 | 14814 ft | 338 kts | 24° |
| 2026-05-03 23:25 | 25.25719 | -81.29078 | 14539 ft | 341 kts | 37° |
| 2026-05-03 23:26 | 25.27537 | -81.27400 | 14260 ft | 340 kts | 37° |
| 2026-05-03 23:26 | 25.29347 | -81.25732 | 13985 ft | 338 kts | 37° |
| 2026-05-03 23:26 | 25.31172 | -81.24052 | 13692 ft | 336 kts | 37° |
| 2026-05-03 23:26 | 25.32943 | -81.22426 | 13413 ft | 334 kts | 37° |
| 2026-05-03 23:27 | 25.34728 | -81.20793 | 13146 ft | 332 kts | 37° |
| 2026-05-03 23:27 | 25.36506 | -81.19166 | 12878 ft | 331 kts | 37° |
| 2026-05-03 23:27 | 25.38274 | -81.17548 | 12619 ft | 330 kts | 37° |
| 2026-05-03 23:27 | 25.40040 | -81.15932 | 12344 ft | 329 kts | 37° |
| 2026-05-03 23:28 | 25.41797 | -81.14324 | 12081 ft | 327 kts | 37° |
| 2026-05-03 23:28 | 25.43544 | -81.12723 | 11816 ft | 325 kts | 37° |
| 2026-05-03 23:28 | 25.45280 | -81.11131 | 11558 ft | 324 kts | 37° |
| 2026-05-03 23:28 | 25.47011 | -81.09544 | 11293 ft | 322 kts | 37° |
| 2026-05-03 23:29 | 25.48729 | -81.07967 | 11033 ft | 320 kts | 37° |
| 2026-05-03 23:29 | 25.50438 | -81.06394 | 10779 ft | 318 kts | 37° |
| 2026-05-03 23:29 | 25.52136 | -81.04829 | 10521 ft | 317 kts | 37° |
| 2026-05-03 23:29 | 25.53826 | -81.03272 | 10264 ft | 315 kts | 37° |
| 2026-05-03 23:30 | 25.55506 | -81.01727 | 10011 ft | 314 kts | 37° |
| 2026-05-03 23:30 | 25.57179 | -81.00186 | 9743 ft | 312 kts | 37° |
| 2026-05-03 23:30 | 25.58845 | -80.98654 | 9488 ft | 311 kts | 37° |
| 2026-05-03 23:30 | 25.60516 | -80.97138 | 9233 ft | 309 kts | 33° |
| 2026-05-03 23:31 | 25.62376 | -80.96012 | 8982 ft | 303 kts | 16° |
| 2026-05-03 23:31 | 25.64398 | -80.95495 | 8758 ft | 296 kts | 1° |
| 2026-05-03 23:31 | 25.66444 | -80.95327 | 8510 ft | 295 kts | 360° |
| 2026-05-03 23:31 | 25.68487 | -80.95161 | 8273 ft | 293 kts | 360° |
| 2026-05-03 23:32 | 25.70518 | -80.94995 | 8040 ft | 292 kts | 0° |
| 2026-05-03 23:32 | 25.72539 | -80.94826 | 7800 ft | 291 kts | 0° |
| 2026-05-03 23:32 | 25.74556 | -80.94654 | 7572 ft | 290 kts | 0° |
| 2026-05-03 23:32 | 25.76561 | -80.94482 | 7339 ft | 289 kts | 0° |
| 2026-05-03 23:33 | 25.78562 | -80.94314 | 7120 ft | 288 kts | 0° |
| 2026-05-03 23:33 | 25.80560 | -80.94147 | 7005 ft | 287 kts | 0° |
| 2026-05-03 23:33 | 25.82558 | -80.93979 | 7013 ft | 288 kts | 0° |
| 2026-05-03 23:33 | 25.84558 | -80.93813 | 7016 ft | 289 kts | 0° |
| 2026-05-03 23:34 | 25.86559 | -80.93617 | 7021 ft | 290 kts | 6° |
| 2026-05-03 23:34 | 25.88505 | -80.92970 | 7022 ft | 295 kts | 21° |
| 2026-05-03 23:34 | 25.90322 | -80.91885 | 7022 ft | 297 kts | 26° |
| 2026-05-03 23:34 | 25.92124 | -80.90774 | 7020 ft | 296 kts | 26° |
| 2026-05-03 23:35 | 25.93926 | -80.89670 | 7021 ft | 296 kts | 26° |
| 2026-05-03 23:35 | 25.95731 | -80.88568 | 7021 ft | 296 kts | 26° |
| 2026-05-03 23:35 | 25.97532 | -80.87466 | 7035 ft | 295 kts | 25° |
| 2026-05-03 23:35 | 25.99281 | -80.86271 | 7026 ft | 297 kts | 36° |
| 2026-05-03 23:36 | 26.00696 | -80.84589 | 7024 ft | 300 kts | 54° |
| 2026-05-03 23:36 | 26.01629 | -80.82508 | 6895 ft | 302 kts | 72° |
| 2026-05-03 23:36 | 26.02049 | -80.80262 | 6763 ft | 301 kts | 80° |
| 2026-05-03 23:36 | 26.02404 | -80.77970 | 6623 ft | 301 kts | 80° |
| 2026-05-03 23:37 | 26.02761 | -80.75686 | 6496 ft | 300 kts | 80° |
| 2026-05-03 23:37 | 26.03120 | -80.73404 | 6359 ft | 299 kts | 80° |
| 2026-05-03 23:37 | 26.03481 | -80.71133 | 6224 ft | 297 kts | 79° |
| 2026-05-03 23:37 | 26.03841 | -80.68871 | 6093 ft | 297 kts | 79° |
| 2026-05-03 23:38 | 26.04200 | -80.66618 | 5959 ft | 295 kts | 79° |
| 2026-05-03 23:38 | 26.04555 | -80.64374 | 5837 ft | 294 kts | 79° |
| 2026-05-03 23:38 | 26.04908 | -80.62139 | 5698 ft | 293 kts | 80° |
| 2026-05-03 23:38 | 26.05261 | -80.59913 | 5405 ft | 290 kts | 79° |
| 2026-05-03 23:39 | 26.05608 | -80.57716 | 5009 ft | 287 kts | 79° |
| 2026-05-03 23:39 | 26.05950 | -80.55548 | 4581 ft | 283 kts | 79° |
| 2026-05-03 23:39 | 26.06287 | -80.53406 | 4152 ft | 278 kts | 80° |
| 2026-05-03 23:39 | 26.06660 | -80.51311 | 4009 ft | 274 kts | 82° |
| 2026-05-03 23:40 | 26.06770 | -80.49252 | 4018 ft | 259 kts | 90° |
| 2026-05-03 23:40 | 26.06746 | -80.47311 | 4018 ft | 243 kts | 91° |
| 2026-05-03 23:40 | 26.06728 | -80.45485 | 4017 ft | 229 kts | 91° |
| 2026-05-03 23:40 | 26.06720 | -80.43743 | 4018 ft | 225 kts | 90° |
| 2026-05-03 23:41 | 26.06713 | -80.42009 | 4018 ft | 224 kts | 91° |
| 2026-05-03 23:41 | 26.06707 | -80.40280 | 4015 ft | 223 kts | 91° |
| 2026-05-03 23:41 | 26.06700 | -80.38584 | 3847 ft | 217 kts | 91° |
| 2026-05-03 23:41 | 26.06693 | -80.36907 | 3592 ft | 217 kts | 90° |
| 2026-05-03 23:42 | 26.06686 | -80.35231 | 3320 ft | 217 kts | 91° |
| 2026-05-03 23:42 | 26.06678 | -80.33554 | 3039 ft | 218 kts | 90° |
| 2026-05-03 23:42 | 26.06670 | -80.31871 | 2754 ft | 218 kts | 90° |
| 2026-05-03 23:42 | 26.06663 | -80.30187 | 2471 ft | 217 kts | 90° |
| 2026-05-03 23:43 | 26.06655 | -80.28510 | 2184 ft | 216 kts | 89° |
| 2026-05-03 23:43 | 26.06647 | -80.26864 | 1904 ft | 208 kts | 89° |
| 2026-05-03 23:43 | 26.06639 | -80.25293 | 1657 ft | 197 kts | 89° |
| 2026-05-03 23:43 | 26.06631 | -80.23849 | 1392 ft | 177 kts | 89° |
| 2026-05-03 23:44 | 26.06624 | -80.22538 | 1181 ft | 161 kts | 89° |
| 2026-05-03 23:44 | 26.06617 | -80.21367 | 975 ft | 145 kts | 88° |
| 2026-05-03 23:44 | 26.06612 | -80.20264 | 798 ft | 140 kts | 87° |
| 2026-05-03 23:44 | 26.06606 | -80.19196 | 626 ft | 137 kts | 88° |
| 2026-05-03 23:45 | 26.06616 | -80.18134 | 450 ft | 137 kts | 87° |
| 2026-05-03 23:45 | 26.06601 | -80.17071 | 274 ft | 137 kts | 88° |
| 2026-05-03 23:45 | 26.06592 | -80.16019 | 93 ft | 136 kts | 86° |
| 2026-05-03 23:45 | 26.06586 | -80.15024 | 19 ft | 112 kts | 91° |
| 2026-05-03 23:46 | 26.06582 | -80.14483 | 43 ft | 40 kts | 90° |
| 2026-05-03 23:46 | 26.06600 | -80.14268 | 48 ft | 18 kts | 70° |
| 2026-05-03 23:46 | 26.06673 | -80.14236 | 50 ft | 5 kts | 313° |
| 2026-05-03 23:46 | 26.06677 | -80.14246 | 49 ft | 3 kts | 292° |
| 2026-05-03 23:47 | 26.06678 | -80.14265 | 49 ft | 0 kts | 270° |
| 2026-05-03 23:47 | 26.06678 | -80.14268 | 49 ft | 2 kts | 270° |
| 2026-05-03 23:47 | 26.06678 | -80.14292 | 49 ft | 4 kts | 270° |
| 2026-05-03 23:47 | 26.06678 | -80.14309 | 49 ft | 0 kts | 270° |
| 2026-05-03 23:48 | 26.06678 | -80.14323 | 49 ft | 3 kts | 270° |
| 2026-05-03 23:48 | 26.06677 | -80.14362 | 49 ft | 7 kts | 270° |
| 2026-05-03 23:48 | 26.06677 | -80.14436 | 46 ft | 11 kts | 269° |
| 2026-05-03 23:48 | 26.06676 | -80.14507 | 44 ft | 7 kts | 269° |
| 2026-05-03 23:49 | 26.06675 | -80.14581 | 40 ft | 11 kts | 269° |
| 2026-05-03 23:49 | 26.06674 | -80.14678 | 32 ft | 9 kts | 270° |
| 2026-05-03 23:49 | 26.06676 | -80.14753 | 30 ft | 11 kts | 271° |
| 2026-05-03 23:49 | 26.06678 | -80.14817 | 22 ft | 5 kts | 272° |
| 2026-05-03 23:50 | 26.06683 | -80.14861 | 19 ft | 6 kts | 281° |
| 2026-05-03 23:50 | 26.06694 | -80.14896 | 20 ft | 9 kts | 297° |
| 2026-05-03 23:50 | 26.06768 | -80.14875 | 15 ft | 13 kts | 84° |
| 2026-05-03 23:50 | 26.06767 | -80.14759 | 15 ft | 17 kts | 91° |
| 2026-05-03 23:51 | 26.06766 | -80.14668 | 15 ft | 19 kts | 90° |
| 2026-05-03 23:51 | 26.06789 | -80.14564 | 16 ft | 11 kts | 45° |
| 2026-05-03 23:51 | 26.06839 | -80.14517 | 16 ft | 10 kts | 19° |
| 2026-05-03 23:51 | 26.06881 | -80.14516 | 16 ft | 4 kts | 1° |
| 2026-05-03 23:52 | 26.06883 | -80.14516 | 16 ft | 0 kts | 1° |